createdAt,value
2022-08-19T00:01:58.947Z,9.70
2022-08-19T00:04:31.300Z,9.20
2022-08-19T00:07:01.012Z,9.40
2022-08-19T00:09:30.103Z,9.70
2022-08-19T00:12:01.188Z,9.20
2022-08-19T00:14:32.993Z,8.90
2022-08-19T00:17:03.560Z,9.10
2022-08-19T00:19:32.796Z,9.00
2022-08-19T00:22:01.227Z,9.10
2022-08-19T00:24:29.958Z,9.50
2022-08-19T00:27:24.881Z,10.00
2022-08-19T00:29:46.782Z,9.80
2022-08-19T00:32:22.153Z,9.50
2022-08-19T00:34:50.544Z,9.50
2022-08-19T00:37:19.162Z,9.40
2022-08-19T00:39:49.239Z,9.90
2022-08-19T00:42:19.143Z,10.00
2022-08-19T00:44:47.648Z,9.80
2022-08-19T00:47:16.156Z,10.00
2022-08-19T00:49:58.493Z,9.80
2022-08-19T00:52:36.229Z,9.60
2022-08-19T00:55:09.928Z,9.80
2022-08-19T00:57:42.494Z,9.30
2022-08-19T01:00:15.132Z,9.30
2022-08-19T01:02:44.531Z,10.00
2022-08-19T01:05:19.763Z,10.60
2022-08-19T01:07:49.467Z,10.30
2022-08-19T01:10:24.545Z,10.20
2022-08-19T01:12:53.819Z,9.40
2022-08-19T01:15:28.028Z,9.70
2022-08-19T01:17:58.248Z,10.60
2022-08-19T01:20:26.536Z,10.80
2022-08-19T01:22:58.423Z,9.20
2022-08-19T01:25:32.473Z,10.00
2022-08-19T01:28:10.536Z,9.40
2022-08-19T01:30:39.670Z,10.00
2022-08-19T01:33:13.122Z,10.10
2022-08-19T01:35:42.735Z,9.70
2022-08-19T01:38:21.336Z,9.80
2022-08-19T01:40:49.505Z,10.00
2022-08-19T01:43:20.159Z,9.70
2022-08-19T01:45:49.078Z,9.70
2022-08-19T01:48:17.183Z,10.00
2022-08-19T01:50:45.418Z,9.40
2022-08-19T01:53:13.557Z,9.30
2022-08-19T01:55:44.121Z,9.90
2022-08-19T01:58:22.031Z,10.00
2022-08-19T02:00:50.265Z,10.20
2022-08-19T02:03:18.691Z,10.20
2022-08-19T02:05:46.968Z,10.90
2022-08-19T02:08:15.035Z,11.30
2022-08-19T02:10:44.993Z,10.90
2022-08-19T02:13:15.054Z,10.40
2022-08-19T02:15:43.609Z,10.90
2022-08-19T02:18:11.928Z,10.30
2022-08-19T02:20:42.400Z,10.40
2022-08-19T02:23:12.519Z,10.80
2022-08-19T02:25:43.783Z,11.00
2022-08-19T02:28:16.640Z,10.70
2022-08-19T02:30:49.400Z,11.20
2022-08-19T02:33:18.104Z,10.60
2022-08-19T02:35:48.391Z,10.20
2022-08-19T02:38:26.433Z,10.70
2022-08-19T02:41:04.218Z,10.80
2022-08-19T02:43:38.332Z,10.70
2022-08-19T02:46:27.175Z,11.10
2022-08-19T02:48:59.123Z,10.90
2022-08-19T02:51:38.343Z,10.40
2022-08-19T02:54:08.519Z,10.60
2022-08-19T02:56:38.832Z,11.10
2022-08-19T02:59:13.279Z,10.90
2022-08-19T03:01:43.644Z,11.20
2022-08-19T03:04:15.342Z,11.90
2022-08-19T03:06:45.816Z,11.00
2022-08-19T03:09:15.383Z,11.20
2022-08-19T03:11:43.807Z,12.50
2022-08-19T03:14:14.043Z,12.00
2022-08-19T03:16:48.471Z,12.00
2022-08-19T03:19:19.422Z,11.70
2022-08-19T03:21:47.736Z,12.10
2022-08-19T03:24:17.051Z,12.10
2022-08-19T03:26:49.207Z,12.30
2022-08-19T03:29:30.239Z,12.20
2022-08-19T03:32:02.266Z,13.10
2022-08-19T03:34:35.330Z,12.30
2022-08-19T03:37:10.668Z,12.40
2022-08-19T03:39:41.142Z,11.90
2022-08-19T03:42:33.112Z,13.40
2022-08-19T03:44:59.636Z,13.80
2022-08-19T03:47:28.509Z,13.40
2022-08-19T03:49:56.850Z,13.30
2022-08-19T03:52:24.970Z,13.70
2022-08-19T03:54:53.137Z,14.00
2022-08-19T03:57:21.749Z,12.00
2022-08-19T04:00:12.604Z,13.10
2022-08-19T04:02:56.524Z,13.70
2022-08-19T04:05:30.820Z,13.90
2022-08-19T04:08:00.427Z,13.00
2022-08-19T04:10:29.839Z,12.60
2022-08-19T04:12:58.204Z,12.70
2022-08-19T04:15:26.335Z,12.70
2022-08-19T04:17:54.518Z,13.20
2022-08-19T04:20:23.051Z,12.10
2022-08-19T04:22:51.384Z,11.70
2022-08-19T04:25:19.809Z,11.90
2022-08-19T04:27:48.004Z,10.30
2022-08-19T04:30:16.517Z,10.60
2022-08-19T04:32:45.051Z,10.20
2022-08-19T04:35:16.877Z,9.80
2022-08-19T04:37:46.914Z,9.60
2022-08-19T04:40:33.462Z,9.30
2022-08-19T04:43:02.443Z,9.30
2022-08-19T04:45:36.280Z,9.50
2022-08-19T04:48:19.607Z,9.10
2022-08-19T04:51:00.056Z,8.90
2022-08-19T04:53:37.422Z,8.70
2022-08-19T04:56:09.971Z,9.30
2022-08-19T04:58:39.396Z,9.20
2022-08-19T05:01:07.716Z,8.20
2022-08-19T05:03:36.127Z,9.00
2022-08-19T05:06:09.590Z,8.80
2022-08-19T05:08:43.219Z,8.80
2022-08-19T05:11:25.881Z,8.20
2022-08-19T05:13:55.274Z,8.50
2022-08-19T05:16:26.298Z,8.80
2022-08-19T05:19:14.513Z,9.40
2022-08-19T05:22:03.447Z,11.30
2022-08-19T05:24:35.312Z,9.00
2022-08-19T05:27:03.758Z,9.10
2022-08-19T05:29:36.318Z,9.40
2022-08-19T05:32:10.103Z,9.30
2022-08-19T05:34:42.080Z,9.40
2022-08-19T05:37:10.331Z,8.20
2022-08-19T05:39:41.556Z,9.30
2022-08-19T05:42:12.090Z,9.60
2022-08-19T05:44:46.073Z,9.70
2022-08-19T05:47:16.313Z,9.70
2022-08-19T05:49:44.655Z,9.20
2022-08-19T05:52:19.006Z,9.00
2022-08-19T05:54:51.074Z,9.10
2022-08-19T05:57:20.561Z,9.20
2022-08-19T05:59:53.269Z,9.20
2022-08-19T06:02:28.640Z,8.80
2022-08-19T06:04:56.985Z,9.10
2022-08-19T06:07:25.367Z,9.50
2022-08-19T06:10:00.876Z,9.10
2022-08-19T06:12:31.769Z,8.90
2022-08-19T06:15:02.200Z,9.40
2022-08-19T06:17:32.071Z,9.30
2022-08-19T06:20:00.903Z,9.20
2022-08-19T06:22:29.727Z,8.90
2022-08-19T06:24:57.902Z,8.40
2022-08-19T06:27:26.116Z,8.70
2022-08-19T06:29:55.445Z,10.10
2022-08-19T06:32:23.616Z,10.70
2022-08-19T06:34:51.816Z,9.70
2022-08-19T06:37:19.841Z,10.10
2022-08-19T06:39:48.180Z,9.40
2022-08-19T06:42:19.697Z,9.80
2022-08-19T06:44:53.290Z,10.30
2022-08-19T06:47:28.771Z,10.50
2022-08-19T06:50:03.613Z,10.50
2022-08-19T06:52:36.408Z,10.60
2022-08-19T06:55:07.009Z,10.00
2022-08-19T06:57:35.968Z,11.30
2022-08-19T07:00:09.715Z,10.50
2022-08-19T07:02:48.203Z,10.60
2022-08-19T07:05:23.871Z,9.80
2022-08-19T07:07:52.108Z,10.00
2022-08-19T07:10:20.964Z,9.50
2022-08-19T07:12:51.326Z,10.90
2022-08-19T07:15:19.623Z,10.10
2022-08-19T07:17:52.669Z,10.70
2022-08-19T07:20:21.215Z,9.30
2022-08-19T07:22:49.870Z,9.30
2022-08-19T07:25:19.782Z,8.80
2022-08-19T07:27:54.203Z,9.70
2022-08-19T07:30:26.211Z,9.40
2022-08-19T07:32:54.893Z,8.40
2022-08-19T07:35:23.476Z,9.00
2022-08-19T07:37:51.539Z,8.30
2022-08-19T07:40:19.725Z,8.60
2022-08-19T07:42:48.044Z,8.50
2022-08-19T07:45:17.423Z,9.10
2022-08-19T07:47:49.837Z,7.30
2022-08-19T07:50:27.067Z,8.20
2022-08-19T07:52:55.199Z,7.80
2022-08-19T07:55:41.794Z,7.60
2022-08-19T07:58:14.866Z,7.40
2022-08-19T08:00:44.854Z,7.20
2022-08-19T08:03:13.886Z,6.60
2022-08-19T08:06:00.538Z,6.50
2022-08-19T08:08:32.705Z,6.60
2022-08-19T08:11:01.628Z,6.10
2022-08-19T08:13:30.506Z,5.40
2022-08-19T08:15:59.827Z,6.30
2022-08-19T08:18:30.537Z,5.90
2022-08-19T08:20:59.970Z,6.00
2022-08-19T08:23:28.175Z,5.80
2022-08-19T08:25:59.144Z,5.40
2022-08-19T08:28:29.738Z,5.20
2022-08-19T08:30:59.273Z,5.20
2022-08-19T08:33:33.711Z,5.20
2022-08-19T08:36:06.500Z,5.00
2022-08-19T08:38:39.801Z,4.50
2022-08-19T08:41:35.951Z,4.10
2022-08-19T08:44:05.863Z,4.20
2022-08-19T08:46:46.998Z,3.80
2022-08-19T08:49:27.730Z,4.50
2022-08-19T08:52:23.496Z,4.30
2022-08-19T08:55:10.100Z,4.20
2022-08-19T08:58:17.400Z,4.30
2022-08-19T09:00:49.498Z,4.50
2022-08-19T09:03:23.255Z,4.60
2022-08-19T09:06:02.722Z,5.10
2022-08-19T09:09:00.731Z,4.30
2022-08-19T09:11:59.987Z,4.70
2022-08-19T09:14:51.546Z,4.80
2022-08-19T09:17:32.145Z,4.60
2022-08-19T09:20:10.483Z,5.40
2022-08-19T09:22:40.672Z,4.60
2022-08-19T09:25:10.820Z,4.40
2022-08-19T09:27:43.618Z,4.10
2022-08-19T09:30:33.292Z,4.30
2022-08-19T09:33:02.026Z,4.00
2022-08-19T09:35:31.271Z,4.20
2022-08-19T09:38:00.651Z,4.20
2022-08-19T09:40:33.450Z,3.70
2022-08-19T09:43:11.487Z,3.80
2022-08-19T09:45:41.719Z,4.20
2022-08-19T09:48:11.789Z,4.10
2022-08-19T09:50:51.528Z,3.80
2022-08-19T09:53:25.452Z,3.60
2022-08-19T09:55:56.472Z,4.10
2022-08-19T09:58:28.901Z,4.60
2022-08-19T10:00:59.651Z,4.30
2022-08-19T10:03:30.355Z,3.60
2022-08-19T10:06:01.783Z,4.10
2022-08-19T10:08:34.112Z,3.80
2022-08-19T10:11:28.005Z,3.90
2022-08-19T10:13:51.593Z,4.70
2022-08-19T10:16:22.689Z,3.60
2022-08-19T10:18:58.884Z,3.20
2022-08-19T10:21:32.186Z,4.20
2022-08-19T10:24:05.041Z,4.00
2022-08-19T10:26:39.371Z,3.40
2022-08-19T10:29:09.328Z,3.60
2022-08-19T10:32:02.490Z,3.80
2022-08-19T10:34:28.487Z,4.00
2022-08-19T10:37:01.163Z,3.50
2022-08-19T10:39:38.005Z,3.40
2022-08-19T10:42:11.806Z,3.50
2022-08-19T10:44:41.300Z,3.70
2022-08-19T10:47:17.876Z,3.20
2022-08-19T10:50:14.682Z,3.20
2022-08-19T10:52:48.955Z,3.20
2022-08-19T10:55:42.361Z,3.30
2022-08-19T10:58:16.463Z,3.20
2022-08-19T11:00:51.944Z,3.40
2022-08-19T11:03:20.746Z,3.10
2022-08-19T11:05:59.735Z,3.00
2022-08-19T11:08:28.645Z,3.70
2022-08-19T11:11:01.770Z,3.60
2022-08-19T11:13:31.894Z,3.00
2022-08-19T11:16:07.125Z,3.20
2022-08-19T11:18:38.561Z,2.90
2022-08-19T11:21:20.183Z,3.30
2022-08-19T11:23:51.745Z,2.90
2022-08-19T11:26:22.098Z,3.70
2022-08-19T11:28:53.531Z,3.60
2022-08-19T11:31:29.002Z,2.90
2022-08-19T11:34:02.707Z,3.20
2022-08-19T11:36:33.607Z,3.00
2022-08-19T11:39:02.882Z,2.80
2022-08-19T11:41:31.171Z,2.80
2022-08-19T11:43:59.405Z,2.50
2022-08-19T11:46:30.612Z,3.60
2022-08-19T11:49:01.659Z,2.60
2022-08-19T11:51:31.124Z,2.50
2022-08-19T11:54:00.962Z,3.00
2022-08-19T11:56:29.995Z,3.10
2022-08-19T11:58:58.955Z,2.70
2022-08-19T12:01:27.927Z,2.70
2022-08-19T12:03:57.708Z,2.80
2022-08-19T12:06:35.264Z,2.80
2022-08-19T12:09:07.395Z,3.00
2022-08-19T12:11:38.065Z,3.10
2022-08-19T12:14:08.194Z,2.60
2022-08-19T12:16:52.316Z,3.10
2022-08-19T12:19:22.229Z,3.20
2022-08-19T12:21:52.463Z,3.10
2022-08-19T12:24:24.451Z,3.10
2022-08-19T12:26:54.079Z,3.10
2022-08-19T12:29:25.244Z,2.90
2022-08-19T12:31:53.386Z,2.90
2022-08-19T12:34:21.590Z,2.70
2022-08-19T12:36:50.816Z,2.70
2022-08-19T12:39:19.366Z,2.40
2022-08-19T12:41:54.030Z,2.90
2022-08-19T12:44:28.956Z,3.20
2022-08-19T12:46:58.741Z,2.80
2022-08-19T12:49:53.121Z,3.20
2022-08-19T12:52:23.126Z,3.80
2022-08-19T12:54:54.312Z,2.80
2022-08-19T12:57:32.306Z,2.80
2022-08-19T13:00:07.252Z,3.10
2022-08-19T13:02:38.779Z,3.10
2022-08-19T13:05:10.959Z,3.00
2022-08-19T13:07:40.719Z,2.60
2022-08-19T13:10:12.909Z,2.70
2022-08-19T13:12:42.400Z,3.00
2022-08-19T13:15:11.612Z,3.20
2022-08-19T13:17:40.966Z,3.30
2022-08-19T13:20:11.044Z,2.90
2022-08-19T13:22:39.750Z,3.20
2022-08-19T13:25:09.488Z,3.00
2022-08-19T13:27:38.291Z,3.20
2022-08-19T13:30:28.090Z,3.20
2022-08-19T13:33:11.869Z,3.00
2022-08-19T13:35:57.103Z,2.70
2022-08-19T13:38:26.067Z,3.80
2022-08-19T13:40:56.394Z,3.80
2022-08-19T13:43:27.542Z,3.20
2022-08-19T13:45:57.736Z,2.90
2022-08-19T13:48:30.216Z,3.20
2022-08-19T13:50:58.313Z,2.70
2022-08-19T13:53:26.398Z,3.00
2022-08-19T13:55:55.219Z,3.80
2022-08-19T13:58:24.226Z,3.60
2022-08-19T14:00:52.875Z,3.70
2022-08-19T14:03:21.140Z,3.80
2022-08-19T14:05:49.291Z,3.70
2022-08-19T14:08:17.927Z,3.70
2022-08-19T14:10:47.099Z,4.30
2022-08-19T14:13:20.182Z,3.60
2022-08-19T14:15:48.757Z,4.30
2022-08-19T14:18:19.090Z,3.50
2022-08-19T14:20:47.326Z,2.80
2022-08-19T14:23:15.805Z,3.10
2022-08-19T14:25:44.870Z,2.60
2022-08-19T14:28:13.527Z,2.90
2022-08-19T14:30:41.807Z,3.20
2022-08-19T14:33:10.253Z,2.70
2022-08-19T14:35:38.538Z,2.90
2022-08-19T14:38:13.968Z,3.40
2022-08-19T14:40:43.101Z,3.00
2022-08-19T14:43:11.550Z,2.90
2022-08-19T14:45:41.005Z,3.50
2022-08-19T14:48:12.581Z,3.10
2022-08-19T14:50:48.075Z,3.00
2022-08-19T14:53:18.115Z,2.70
2022-08-19T14:55:47.876Z,2.90
2022-08-19T14:58:29.582Z,3.00
2022-08-19T15:01:00.714Z,3.20
2022-08-19T15:03:29.897Z,3.20
2022-08-19T15:05:58.845Z,3.80
2022-08-19T15:08:29.166Z,2.90
2022-08-19T15:10:58.119Z,3.30
2022-08-19T15:13:28.455Z,2.70
2022-08-19T15:15:58.209Z,3.00
2022-08-19T15:18:26.603Z,3.20
2022-08-19T15:20:56.051Z,3.60
2022-08-19T15:23:24.578Z,3.30
2022-08-19T15:25:56.641Z,3.30
2022-08-19T15:28:27.414Z,3.20
2022-08-19T15:30:55.695Z,3.20
2022-08-19T15:33:24.455Z,3.50
2022-08-19T15:35:52.818Z,3.60
2022-08-19T15:38:26.173Z,3.30
2022-08-19T15:41:14.574Z,3.30
2022-08-19T15:43:43.783Z,3.50
2022-08-19T15:46:12.137Z,3.20
2022-08-19T15:48:56.209Z,3.80
2022-08-19T15:51:30.791Z,3.50
2022-08-19T15:54:00.535Z,3.80
2022-08-19T15:56:47.654Z,3.60
2022-08-19T15:59:47.168Z,4.30
2022-08-19T16:02:37.147Z,3.80
2022-08-19T16:05:27.695Z,3.60
2022-08-19T16:07:57.515Z,4.40
2022-08-19T16:10:27.992Z,4.10
2022-08-19T16:12:58.189Z,3.40
2022-08-19T16:15:28.821Z,3.20
2022-08-19T16:17:58.567Z,3.40
2022-08-19T16:20:28.175Z,3.30
2022-08-19T16:22:58.701Z,3.70
2022-08-19T16:25:29.387Z,3.70
2022-08-19T16:28:07.184Z,3.50
2022-08-19T16:30:38.897Z,3.90
2022-08-19T16:33:08.523Z,3.80
2022-08-19T16:35:36.975Z,3.80
2022-08-19T16:38:07.195Z,4.00
2022-08-19T16:40:35.718Z,3.90
2022-08-19T16:43:04.530Z,3.80
2022-08-19T16:45:32.649Z,3.80
2022-08-19T16:48:00.970Z,4.30
2022-08-19T16:50:48.276Z,4.00
2022-08-19T16:53:20.411Z,3.90
2022-08-19T16:55:57.320Z,3.80
2022-08-19T16:58:29.449Z,4.20
2022-08-19T17:01:03.766Z,3.70
2022-08-19T17:03:36.575Z,4.20
2022-08-19T17:06:18.390Z,4.20
2022-08-19T17:08:51.863Z,4.30
2022-08-19T17:11:22.336Z,5.10
2022-08-19T17:13:51.088Z,4.60
2022-08-19T17:16:25.119Z,4.50
2022-08-19T17:18:55.799Z,4.10
2022-08-19T17:21:29.607Z,4.00
2022-08-19T17:23:59.752Z,3.90
2022-08-19T17:26:28.521Z,4.10
2022-08-19T17:28:58.564Z,4.30
2022-08-19T17:31:29.215Z,4.30
2022-08-19T17:33:59.116Z,4.70
2022-08-19T17:36:30.726Z,5.20
2022-08-19T17:39:01.164Z,6.60
2022-08-19T17:41:30.770Z,7.20
2022-08-19T17:43:59.117Z,7.70
2022-08-19T17:46:27.832Z,7.30
2022-08-19T17:48:57.973Z,7.90
2022-08-19T17:51:40.274Z,16.50
2022-08-19T17:54:12.201Z,45.30
2022-08-19T17:56:40.548Z,60.30
2022-08-19T17:59:13.725Z,42.30
2022-08-19T18:01:52.562Z,31.10
2022-08-19T18:04:25.247Z,23.70
2022-08-19T18:06:55.572Z,17.20
2022-08-19T18:09:42.535Z,15.30
2022-08-19T18:12:13.234Z,13.40
2022-08-19T18:14:42.531Z,9.90
2022-08-19T18:17:13.304Z,10.40
2022-08-19T18:19:44.104Z,9.10
2022-08-19T18:22:23.648Z,8.50
2022-08-19T18:24:51.948Z,8.20
2022-08-19T18:27:20.225Z,8.40
2022-08-19T18:29:49.014Z,7.30
2022-08-19T18:32:24.004Z,7.10
2022-08-19T18:34:53.900Z,7.20
2022-08-19T18:37:22.887Z,7.90
2022-08-19T18:40:10.085Z,10.70
2022-08-19T18:43:04.525Z,12.80
2022-08-19T18:45:51.743Z,13.70
2022-08-19T18:48:38.744Z,12.90
2022-08-19T18:51:07.780Z,11.40
2022-08-19T18:53:39.708Z,8.30
2022-08-19T18:56:11.148Z,10.30
2022-08-19T18:58:40.760Z,10.40
2022-08-19T19:01:17.173Z,10.00
2022-08-19T19:03:52.997Z,11.00
2022-08-19T19:06:26.527Z,10.10
2022-08-19T19:08:55.593Z,9.50
2022-08-19T19:11:31.563Z,8.90
2022-08-19T19:14:04.058Z,8.70
2022-08-19T19:16:32.928Z,10.00
2022-08-19T19:19:01.638Z,8.90
2022-08-19T19:21:34.078Z,9.00
2022-08-19T19:24:03.184Z,9.10
2022-08-19T19:26:31.355Z,7.90
2022-08-19T19:28:59.891Z,7.90
2022-08-19T19:31:28.150Z,6.60
2022-08-19T19:33:56.558Z,7.20
2022-08-19T19:36:24.706Z,6.90
2022-08-19T19:38:53.325Z,6.00
2022-08-19T19:41:24.411Z,6.80
2022-08-19T19:44:23.187Z,6.20
2022-08-19T19:46:45.371Z,6.70
2022-08-19T19:49:14.547Z,6.50
2022-08-19T19:51:43.610Z,6.20
2022-08-19T19:54:19.542Z,6.70
2022-08-19T19:56:50.625Z,6.30
2022-08-19T19:59:19.115Z,6.80
2022-08-19T20:01:47.535Z,6.60
2022-08-19T20:04:17.467Z,6.70
2022-08-19T20:06:46.629Z,6.80
2022-08-19T20:09:19.849Z,7.00
2022-08-19T20:11:53.783Z,6.70
2022-08-19T20:14:28.695Z,6.00
2022-08-19T20:16:59.281Z,8.60
2022-08-19T20:19:37.471Z,8.30
2022-08-19T20:22:06.759Z,6.20
2022-08-19T20:24:36.622Z,6.70
2022-08-19T20:27:05.508Z,6.80
2022-08-19T20:29:38.996Z,6.30
2022-08-19T20:32:10.612Z,8.80
2022-08-19T20:34:40.786Z,9.30
2022-08-19T20:37:11.542Z,7.90
2022-08-19T20:39:39.749Z,7.10
2022-08-19T20:42:08.103Z,7.50
2022-08-19T20:44:36.341Z,7.00
2022-08-19T20:47:04.514Z,7.00
2022-08-19T20:49:32.905Z,6.90
2022-08-19T20:52:04.403Z,6.50
2022-08-19T20:54:33.706Z,7.30
2022-08-19T20:57:03.912Z,7.20
2022-08-19T20:59:32.139Z,7.10
2022-08-19T21:02:00.452Z,6.60
2022-08-19T21:04:29.065Z,6.50
2022-08-19T21:06:57.301Z,6.60
2022-08-19T21:09:25.426Z,6.30
2022-08-19T21:11:53.947Z,6.40
2022-08-19T21:14:23.347Z,6.60
2022-08-19T21:16:51.685Z,7.10
2022-08-19T21:19:23.702Z,6.90
2022-08-19T21:21:52.650Z,6.50
2022-08-19T21:24:21.266Z,6.70
2022-08-19T21:26:54.800Z,6.10
2022-08-19T21:29:22.942Z,7.30
2022-08-19T21:31:51.299Z,6.50
2022-08-19T21:34:19.743Z,6.90
2022-08-19T21:36:47.915Z,6.60
2022-08-19T21:39:16.825Z,6.30
2022-08-19T21:41:45.200Z,6.60
2022-08-19T21:44:13.392Z,6.60
2022-08-19T21:46:41.845Z,6.70
2022-08-19T21:49:10.701Z,6.90
2022-08-19T21:51:38.736Z,7.30
2022-08-19T21:54:07.619Z,6.60
2022-08-19T21:56:42.906Z,6.80
2022-08-19T21:59:11.482Z,7.10
2022-08-19T22:01:41.388Z,7.00
2022-08-19T22:04:11.907Z,7.20
2022-08-19T22:06:40.153Z,6.80
2022-08-19T22:09:08.710Z,6.80
2022-08-19T22:11:36.899Z,7.00
2022-08-19T22:14:05.855Z,6.90
2022-08-19T22:16:36.025Z,7.10
2022-08-19T22:19:04.641Z,7.10
2022-08-19T22:21:40.915Z,7.50
2022-08-19T22:24:10.097Z,7.30
2022-08-19T22:26:38.747Z,7.20
2022-08-19T22:29:07.726Z,7.00
2022-08-19T22:31:37.801Z,6.90
2022-08-19T22:34:06.262Z,7.00
2022-08-19T22:36:35.616Z,7.10
2022-08-19T22:39:05.144Z,6.80
2022-08-19T22:41:33.983Z,6.70
2022-08-19T22:44:02.543Z,6.80
2022-08-19T22:46:34.495Z,6.60
2022-08-19T22:49:02.604Z,6.60
2022-08-19T22:51:49.169Z,6.90
2022-08-19T22:54:18.234Z,7.10
2022-08-19T22:56:46.550Z,6.80
2022-08-19T22:59:15.088Z,7.10
2022-08-19T23:01:43.259Z,6.90
2022-08-19T23:04:12.720Z,6.90
2022-08-19T23:06:42.268Z,7.00
2022-08-19T23:09:11.061Z,7.40
2022-08-19T23:11:46.245Z,7.10
2022-08-19T23:14:16.365Z,7.30
2022-08-19T23:16:50.530Z,7.40
2022-08-19T23:19:21.165Z,7.10
2022-08-19T23:21:50.223Z,7.20
2022-08-19T23:24:19.074Z,7.90
2022-08-19T23:27:05.850Z,7.30
2022-08-19T23:29:53.123Z,8.20
2022-08-19T23:32:23.695Z,8.30
2022-08-19T23:34:52.722Z,7.70
2022-08-19T23:37:20.891Z,7.90
2022-08-19T23:39:50.047Z,8.20
2022-08-19T23:42:18.806Z,8.10
2022-08-19T23:44:51.865Z,9.00
2022-08-19T23:47:21.363Z,7.90
2022-08-19T23:49:51.047Z,8.10
2022-08-19T23:52:19.882Z,8.50
2022-08-19T23:54:48.411Z,8.20
2022-08-19T23:57:16.523Z,9.20
2022-08-19T23:59:48.059Z,8.90
